Time;durP1;ratioP1;P1;durP2;ratioP2;P2;SDS_P1;SDS_P2;PMS_P1;PMS_P2;Temp;Humidity;BMP_temperature;BMP_pressure;BME280_temperature;BME280_humidity;BME280_pressure;Samples;Min_cycle;Max_cycle;Signal;HPM_P1;HPM_P2
2022/01/28 00:00:07;;;;;;;9.70;5.23;;;;;;;;;;5043595;28;20455;-76
2022/01/28 00:02:49;;;;;;;5.87;3.33;;;;;;;;;;5031466;28;20576;-78
2022/01/28 00:05:21;;;;;;;7.20;3.80;;;;;;;;;;5047221;28;20569;-77
2022/01/28 00:07:47;;;;;;;5.40;4.67;;;;;;;;;;5036114;28;20442;-78
2022/01/28 00:10:13;;;;;;;8.47;4.50;;;;;;;;;;5052421;28;20446;-77
2022/01/28 00:12:56;;;;;;;7.50;5.00;;;;;;;;;;5054579;28;20483;-76
2022/01/28 00:15:30;;;;;;;7.47;5.00;;;;;;;;;;5047897;28;20437;-75
2022/01/28 00:39:28;;;;;;;4.37;3.77;;;;;;;;;;5028169;28;20475;-76
2022/01/28 00:41:54;;;;;;;3.63;3.23;;;;;;;;;;5038736;28;20430;-76
2022/01/28 00:44:20;;;;;;;7.20;4.30;;;;;;;;;;5041567;28;20726;-78
2022/01/28 00:46:46;;;;;;;5.13;3.80;;;;;;;;;;5053515;28;20446;-77
2022/01/28 00:49:12;;;;;;;5.90;4.93;;;;;;;;;;5029065;28;20429;-76
2022/01/28 00:51:38;;;;;;;6.77;6.17;;;;;;;;;;5052461;28;20473;-77
2022/01/28 00:54:04;;;;;;;5.73;3.63;;;;;;;;;;5010242;28;20435;-76
2022/01/28 00:56:30;;;;;;;5.03;3.97;;;;;;;;;;5050670;28;20430;-76
2022/01/28 00:58:56;;;;;;;5.80;3.83;;;;;;;;;;5031064;28;21312;-75
2022/01/28 01:01:29;;;;;;;6.47;3.43;;;;;;;;;;5056559;28;20437;-76
2022/01/28 01:03:55;;;;;;;6.00;4.23;;;;;;;;;;5048007;28;20438;-76
2022/01/28 01:06:21;;;;;;;4.20;3.17;;;;;;;;;;5037639;28;20461;-76
2022/01/28 01:08:47;;;;;;;6.97;3.90;;;;;;;;;;5043952;28;20425;-76
2022/01/28 01:11:13;;;;;;;8.37;4.90;;;;;;;;;;5033169;28;20957;-76
2022/01/28 01:13:41;;;;;;;5.70;4.10;;;;;;;;;;5018996;28;20515;-76
2022/01/28 01:16:10;;;;;;;6.10;4.03;;;;;;;;;;5048275;28;20438;-75
2022/01/28 01:18:45;;;;;;;6.23;4.00;;;;;;;;;;5043087;28;20449;-76
2022/01/28 01:21:18;;;;;;;3.87;3.33;;;;;;;;;;5042768;28;20918;-76
2022/01/28 01:23:53;;;;;;;7.47;4.03;;;;;;;;;;5008254;28;20448;-76
2022/01/28 01:26:21;;;;;;;8.13;3.93;;;;;;;;;;5044983;28;20445;-76
2022/01/28 01:28:48;;;;;;;6.03;3.43;;;;;;;;;;5018950;28;20806;-77
2022/01/28 01:31:18;;;;;;;4.60;3.67;;;;;;;;;;5042307;28;20449;-77
2022/01/28 01:34:12;;;;;;;5.60;3.63;;;;;;;;;;5038207;28;20947;-76
2022/01/28 01:36:30;;;;;;;5.47;4.17;;;;;;;;;;5040249;28;20473;-75
2022/01/28 01:38:56;;;;;;;6.13;4.33;;;;;;;;;;5040319;28;21033;-76
2022/01/28 01:41:32;;;;;;;5.97;4.67;;;;;;;;;;5038247;28;20431;-76
2022/01/28 01:52:06;;;;;;;5.53;4.13;;;;;;;;;;5039828;28;20499;-77
2022/01/28 01:54:39;;;;;;;5.30;4.40;;;;;;;;;;5042146;28;20934;-76
2022/01/28 01:57:05;;;;;;;6.57;3.50;;;;;;;;;;5000730;28;20532;-76
2022/01/28 01:59:31;;;;;;;5.27;4.77;;;;;;;;;;5044152;28;21049;-75
2022/01/28 02:01:57;;;;;;;5.87;4.23;;;;;;;;;;5030376;28;20446;-75
2022/01/28 02:04:23;;;;;;;5.50;4.40;;;;;;;;;;5041234;28;20472;-77
2022/01/28 02:06:49;;;;;;;5.30;3.93;;;;;;;;;;5036459;28;20454;-75
2022/01/28 02:09:15;;;;;;;9.43;3.70;;;;;;;;;;5043044;28;21200;-76
2022/01/28 02:11:41;;;;;;;4.70;3.90;;;;;;;;;;5036149;28;20479;-76
2022/01/28 02:14:07;;;;;;;6.17;3.93;;;;;;;;;;5044672;28;20526;-76
2022/01/28 02:16:33;;;;;;;5.23;3.87;;;;;;;;;;5009282;28;20457;-76
2022/01/28 02:19:00;;;;;;;6.53;3.80;;;;;;;;;;5040264;28;20521;-76
2022/01/28 02:21:26;;;;;;;6.33;3.97;;;;;;;;;;5032852;28;20953;-75
2022/01/28 02:23:58;;;;;;;3.90;3.20;;;;;;;;;;5038490;28;20453;-77
2022/01/28 02:26:24;;;;;;;4.63;3.60;;;;;;;;;;4997999;28;20441;-76
2022/01/28 02:28:54;;;;;;;4.73;3.43;;;;;;;;;;5038679;28;20447;-76
2022/01/28 02:31:24;;;;;;;5.70;3.50;;;;;;;;;;5020152;28;20441;-76
2022/01/28 02:33:52;;;;;;;5.27;3.47;;;;;;;;;;5034810;28;20439;-76
2022/01/28 02:36:18;;;;;;;10.40;4.03;;;;;;;;;;5031576;28;20811;-76
2022/01/28 02:38:44;;;;;;;5.07;3.60;;;;;;;;;;5041704;28;20514;-76
2022/01/28 02:41:10;;;;;;;6.47;3.03;;;;;;;;;;5035662;28;20459;-76
2022/01/28 02:43:45;;;;;;;5.03;4.13;;;;;;;;;;5041216;28;20449;-76
2022/01/28 02:46:14;;;;;;;5.90;4.03;;;;;;;;;;5028237;28;20481;-76
2022/01/28 02:48:51;;;;;;;5.03;3.77;;;;;;;;;;5038782;28;21399;-76
2022/01/28 02:51:19;;;;;;;6.77;3.60;;;;;;;;;;5018738;28;20456;-75
2022/01/28 02:56:23;;;;;;;5.37;3.90;;;;;;;;;;5038054;28;20450;-76
2022/01/28 02:58:49;;;;;;;4.80;3.40;;;;;;;;;;5041107;28;20546;-76
2022/01/28 03:01:16;;;;;;;4.87;3.33;;;;;;;;;;5000664;28;20446;-75
2022/01/28 03:03:46;;;;;;;6.60;4.00;;;;;;;;;;5040229;28;22506;-76
2022/01/28 03:06:12;;;;;;;5.43;3.63;;;;;;;;;;5019413;28;20672;-76
2022/01/28 03:08:41;;;;;;;5.90;3.87;;;;;;;;;;5039657;28;21018;-76
2022/01/28 03:16:53;;;;;;;6.90;3.30;;;;;;;;;;5039495;28;20469;-76
2022/01/28 03:19:22;;;;;;;5.93;3.87;;;;;;;;;;5040161;28;20434;-76
2022/01/28 03:22:00;;;;;;;4.33;3.40;;;;;;;;;;5034209;28;20453;-76
2022/01/28 03:24:27;;;;;;;9.77;3.30;;;;;;;;;;5042569;28;20484;-75
2022/01/28 03:27:00;;;;;;;4.90;3.77;;;;;;;;;;5050819;28;20468;-76
2022/01/28 03:29:26;;;;;;;4.47;3.13;;;;;;;;;;5044048;28;20460;-75
2022/01/28 03:31:52;;;;;;;4.53;3.60;;;;;;;;;;5038489;28;20446;-76
2022/01/28 03:34:18;;;;;;;4.30;3.60;;;;;;;;;;5041939;28;20427;-76
2022/01/28 03:36:44;;;;;;;6.13;3.47;;;;;;;;;;4999982;28;20927;-77
2022/01/28 03:39:11;;;;;;;7.13;3.97;;;;;;;;;;5039926;28;20438;-76
2022/01/28 03:41:38;;;;;;;6.40;4.50;;;;;;;;;;5036565;28;20440;-76
2022/01/28 03:44:04;;;;;;;4.33;3.57;;;;;;;;;;5042343;28;20431;-75
2022/01/28 03:46:30;;;;;;;4.17;3.73;;;;;;;;;;5043159;28;20450;-75
2022/01/28 03:48:56;;;;;;;6.40;4.50;;;;;;;;;;5037393;28;20442;-76
2022/01/28 03:51:22;;;;;;;9.07;4.00;;;;;;;;;;5038905;28;20434;-77
2022/01/28 03:53:48;;;;;;;10.73;4.13;;;;;;;;;;5038766;28;20446;-77
2022/01/28 03:56:14;;;;;;;5.93;3.73;;;;;;;;;;5031934;28;20500;-77
2022/01/28 03:58:40;;;;;;;5.90;3.93;;;;;;;;;;5040397;28;20438;-76
2022/01/28 04:01:14;;;;;;;6.70;3.60;;;;;;;;;;5014608;28;20448;-76
2022/01/28 04:03:47;;;;;;;5.30;4.10;;;;;;;;;;5041169;28;20493;-76
2022/01/28 04:11:29;;;;;;;6.17;3.47;;;;;;;;;;5037213;28;20448;-77
2022/01/28 04:14:12;;;;;;;5.40;3.90;;;;;;;;;;5040270;28;20448;-76
2022/01/28 04:19:23;;;;;;;8.27;4.50;;;;;;;;;;5040093;28;20484;-76
2022/01/28 04:21:49;;;;;;;6.20;3.23;;;;;;;;;;5034427;28;20447;-76
2022/01/28 04:24:15;;;;;;;7.40;4.47;;;;;;;;;;5041139;28;20441;-76
2022/01/28 04:26:41;;;;;;;6.53;4.83;;;;;;;;;;5036018;28;20455;-76
2022/01/28 04:29:08;;;;;;;5.17;3.77;;;;;;;;;;5039538;28;20929;-75
2022/01/28 04:31:34;;;;;;;4.50;4.10;;;;;;;;;;5014654;28;20453;-76
2022/01/28 04:34:01;;;;;;;7.40;3.53;;;;;;;;;;5040069;28;22753;-76
2022/01/28 04:36:35;;;;;;;5.67;3.90;;;;;;;;;;4999785;28;20467;-76
2022/01/28 04:39:11;;;;;;;6.80;4.07;;;;;;;;;;5032377;28;20433;-76
2022/01/28 04:42:17;;;;;;;6.27;4.50;;;;;;;;;;5039469;28;20496;-76
2022/01/28 04:44:44;;;;;;;7.03;4.23;;;;;;;;;;5038987;28;20946;-76
2022/01/28 04:47:29;;;;;;;5.73;4.27;;;;;;;;;;5036323;28;20430;-76
2022/01/28 04:55:11;;;;;;;6.07;4.37;;;;;;;;;;5038800;28;20441;-76
2022/01/28 04:58:36;;;;;;;8.03;4.70;;;;;;;;;;5038157;28;20957;-74
2022/01/28 05:05:46;;;;;;;6.87;4.27;;;;;;;;;;5039502;28;20485;-76
2022/01/28 05:16:27;;;;;;;6.30;4.00;;;;;;;;;;5041097;28;20504;-76
2022/01/28 05:27:02;;;;;;;6.80;4.07;;;;;;;;;;5037969;28;20507;-76
2022/01/28 05:29:28;;;;;;;8.13;4.70;;;;;;;;;;5037841;28;20528;-76
2022/01/28 05:31:54;;;;;;;4.87;4.47;;;;;;;;;;5044952;28;20875;-75
2022/01/28 05:34:25;;;;;;;9.70;5.13;;;;;;;;;;5027936;28;20433;-76
2022/01/28 05:36:51;;;;;;;9.40;4.97;;;;;;;;;;5044573;28;22105;-76
2022/01/28 05:39:31;;;;;;;7.30;5.20;;;;;;;;;;5016472;28;20930;-76
2022/01/28 05:41:57;;;;;;;10.97;6.23;;;;;;;;;;5022121;28;21013;-76
2022/01/28 05:44:23;;;;;;;8.93;4.83;;;;;;;;;;5044801;28;20478;-76
2022/01/28 05:46:49;;;;;;;6.47;4.73;;;;;;;;;;5040040;28;20438;-76
2022/01/28 05:49:16;;;;;;;8.30;5.37;;;;;;;;;;5030334;28;20463;-76
2022/01/28 05:51:42;;;;;;;11.10;6.07;;;;;;;;;;5024553;28;20442;-75
2022/01/28 05:54:08;;;;;;;10.00;5.40;;;;;;;;;;5044756;28;20500;-76
2022/01/28 05:56:34;;;;;;;9.50;5.33;;;;;;;;;;5039609;28;20951;-75
2022/01/28 05:59:00;;;;;;;9.33;5.50;;;;;;;;;;5040071;28;20476;-76
2022/01/28 06:01:26;;;;;;;7.57;5.43;;;;;;;;;;5035953;28;20580;-75
2022/01/28 06:03:52;;;;;;;6.03;4.97;;;;;;;;;;5036490;28;20957;-76
2022/01/28 06:06:20;;;;;;;8.23;4.43;;;;;;;;;;5038642;28;20478;-75
2022/01/28 06:08:49;;;;;;;5.80;4.63;;;;;;;;;;5020755;28;20659;-76
2022/01/28 06:11:16;;;;;;;10.40;5.13;;;;;;;;;;5042289;28;20504;-75
2022/01/28 06:13:42;;;;;;;9.57;5.00;;;;;;;;;;5001846;28;21054;-76
2022/01/28 06:16:09;;;;;;;8.93;5.53;;;;;;;;;;5041693;28;20970;-76
2022/01/28 06:18:35;;;;;;;9.57;6.17;;;;;;;;;;5039294;28;20532;-76
2022/01/28 06:21:01;;;;;;;11.37;6.20;;;;;;;;;;5042151;28;20935;-76
2022/01/28 06:23:27;;;;;;;11.77;5.27;;;;;;;;;;5038881;28;20445;-76
2022/01/28 06:25:53;;;;;;;10.60;5.53;;;;;;;;;;5043199;28;20967;-76
2022/01/28 06:28:19;;;;;;;7.97;5.30;;;;;;;;;;5040412;28;22401;-76
2022/01/28 06:30:45;;;;;;;10.87;4.63;;;;;;;;;;5044456;28;20549;-76
2022/01/28 06:33:12;;;;;;;8.97;4.53;;;;;;;;;;5037052;28;20962;-76
2022/01/28 06:35:38;;;;;;;7.50;4.80;;;;;;;;;;5042898;28;20444;-76
2022/01/28 06:38:04;;;;;;;8.80;6.43;;;;;;;;;;5020734;28;20435;-75
2022/01/28 06:40:30;;;;;;;14.37;6.80;;;;;;;;;;5028919;28;20561;-75
2022/01/28 06:43:07;;;;;;;10.93;6.13;;;;;;;;;;5034274;28;20521;-75
2022/01/28 06:45:33;;;;;;;8.43;4.83;;;;;;;;;;5027355;28;20486;-74
2022/01/28 06:47:59;;;;;;;9.87;5.70;;;;;;;;;;5045927;28;20445;-74
2022/01/28 06:50:25;;;;;;;8.90;4.67;;;;;;;;;;5038921;28;20474;-73
2022/01/28 06:52:51;;;;;;;8.23;5.43;;;;;;;;;;5044369;28;20433;-74
2022/01/28 06:55:17;;;;;;;14.40;7.23;;;;;;;;;;5035619;28;20458;-73
2022/01/28 06:57:43;;;;;;;10.40;5.40;;;;;;;;;;5017004;28;21757;-75
2022/01/28 11:02:03;;;;;;;4.47;1.90;;;;;;;;;;5332858;23;20481;-73
2022/01/28 11:04:29;;;;;;;3.13;1.90;;;;;;;;;;4979447;28;21279;-74
2022/01/28 11:06:56;;;;;;;3.90;2.03;;;;;;;;;;4957871;28;20472;-74
2022/01/28 11:09:22;;;;;;;2.50;1.37;;;;;;;;;;4943679;28;20448;-74
2022/01/28 11:11:48;;;;;;;5.00;1.83;;;;;;;;;;4943960;28;20445;-74
2022/01/28 11:14:14;;;;;;;4.90;1.40;;;;;;;;;;4976228;28;20452;-74
2022/01/28 11:16:40;;;;;;;4.77;1.93;;;;;;;;;;4956360;28;20457;-75
2022/01/28 11:19:06;;;;;;;2.93;1.67;;;;;;;;;;4973542;28;20459;-76
2022/01/28 11:21:43;;;;;;;5.50;1.90;;;;;;;;;;4958372;28;20453;-74
2022/01/28 11:24:10;;;;;;;4.77;2.10;;;;;;;;;;4970543;28;20437;-73
2022/01/28 11:26:40;;;;;;;5.33;1.60;;;;;;;;;;4952410;28;20552;-74
2022/01/28 11:29:13;;;;;;;3.13;2.00;;;;;;;;;;4971210;28;20887;-73
2022/01/28 11:31:42;;;;;;;4.30;1.73;;;;;;;;;;4919792;28;20449;-74
2022/01/28 11:34:35;;;;;;;4.47;2.63;;;;;;;;;;4964318;28;20476;-73
2022/01/28 11:37:04;;;;;;;7.70;1.63;;;;;;;;;;4968925;28;20465;-73
2022/01/28 11:39:32;;;;;;;1.70;1.33;;;;;;;;;;4976716;28;20433;-73
2022/01/28 11:42:01;;;;;;;4.10;2.33;;;;;;;;;;4951700;28;21360;-73
2022/01/28 11:44:48;;;;;;;3.00;1.40;;;;;;;;;;4976371;28;20445;-74
2022/01/28 11:47:26;;;;;;;3.50;1.57;;;;;;;;;;4957950;28;23299;-73
2022/01/28 11:49:53;;;;;;;2.27;1.63;;;;;;;;;;4977118;28;20804;-73
2022/01/28 11:52:22;;;;;;;2.47;1.50;;;;;;;;;;4947289;28;20433;-74
2022/01/28 11:54:49;;;;;;;6.93;2.33;;;;;;;;;;4973214;28;21008;-74
2022/01/28 11:57:15;;;;;;;1.87;1.40;;;;;;;;;;4953675;28;20518;-73
2022/01/28 11:59:41;;;;;;;2.77;1.67;;;;;;;;;;4958148;28;20456;-74
2022/01/28 12:02:08;;;;;;;3.57;1.87;;;;;;;;;;4924301;28;20449;-75
2022/01/28 12:04:38;;;;;;;6.70;4.00;;;;;;;;;;4978542;28;20445;-74
2022/01/28 12:07:09;;;;;;;2.57;1.60;;;;;;;;;;4951559;28;21075;-72
2022/01/28 12:09:36;;;;;;;3.93;1.33;;;;;;;;;;4974227;28;20445;-72
2022/01/28 12:12:02;;;;;;;4.10;1.80;;;;;;;;;;4966830;28;20486;-73
2022/01/28 12:14:47;;;;;;;2.20;1.80;;;;;;;;;;4944398;28;20565;-73
2022/01/28 12:17:28;;;;;;;3.83;1.50;;;;;;;;;;4976506;28;21173;-72
2022/01/28 12:20:27;;;;;;;3.30;1.53;;;;;;;;;;4957697;28;20453;-73
2022/01/28 12:22:59;;;;;;;3.43;2.10;;;;;;;;;;4934887;28;20488;-74
2022/01/28 12:25:37;;;;;;;4.10;1.90;;;;;;;;;;4968626;28;20567;-73
2022/01/28 12:28:20;;;;;;;7.47;2.20;;;;;;;;;;4968850;28;20510;-72
2022/01/28 12:30:47;;;;;;;4.03;1.97;;;;;;;;;;4955353;28;21781;-73
2022/01/28 12:33:16;;;;;;;3.20;1.80;;;;;;;;;;4946685;28;20445;-74
2022/01/28 12:35:43;;;;;;;3.73;1.80;;;;;;;;;;4966856;28;20954;-73
2022/01/28 12:38:09;;;;;;;7.90;1.97;;;;;;;;;;4959157;28;20736;-73
2022/01/28 12:40:36;;;;;;;4.53;2.47;;;;;;;;;;4960692;28;20557;-74
2022/01/28 12:43:05;;;;;;;5.93;2.37;;;;;;;;;;4964840;28;20532;-73
2022/01/28 12:45:31;;;;;;;3.40;2.17;;;;;;;;;;4951870;28;20519;-73
2022/01/28 12:47:57;;;;;;;4.77;2.63;;;;;;;;;;4961862;28;20928;-74
2022/01/28 12:50:24;;;;;;;2.80;2.10;;;;;;;;;;4963404;28;20568;-73
2022/01/28 12:52:50;;;;;;;7.30;2.87;;;;;;;;;;4927867;28;20448;-74
2022/01/28 12:55:16;;;;;;;4.13;2.50;;;;;;;;;;4972720;28;20510;-75
2022/01/28 12:57:43;;;;;;;4.60;2.40;;;;;;;;;;4956767;28;20564;-75
2022/01/28 13:00:09;;;;;;;4.23;2.67;;;;;;;;;;4967170;28;20531;-74
2022/01/28 13:02:36;;;;;;;3.30;2.43;;;;;;;;;;4951976;28;20530;-73
2022/01/28 13:10:19;;;;;;;4.50;2.87;;;;;;;;;;4975571;28;20740;-74
2022/01/28 13:12:45;;;;;;;7.07;2.93;;;;;;;;;;4956018;28;20465;-75
2022/01/28 13:15:12;;;;;;;9.80;2.53;;;;;;;;;;4977123;28;20476;-74
2022/01/28 13:17:39;;;;;;;4.37;2.93;;;;;;;;;;4949548;28;20441;-74
2022/01/28 13:20:06;;;;;;;8.57;3.80;;;;;;;;;;4978535;28;20825;-74
2022/01/28 13:22:32;;;;;;;6.67;2.90;;;;;;;;;;4950117;28;20487;-74
2022/01/28 13:24:58;;;;;;;4.70;3.63;;;;;;;;;;4976248;28;20505;-73
2022/01/28 13:27:41;;;;;;;5.80;3.87;;;;;;;;;;4947283;28;20969;-74
2022/01/28 13:30:13;;;;;;;5.93;3.27;;;;;;;;;;4968931;28;20437;-75
2022/01/28 13:32:44;;;;;;;6.77;3.33;;;;;;;;;;4955537;28;20576;-74
2022/01/28 13:35:13;;;;;;;4.80;3.40;;;;;;;;;;4974227;28;20491;-74
2022/01/28 13:37:41;;;;;;;9.10;4.20;;;;;;;;;;4960344;28;20448;-74
2022/01/28 13:40:09;;;;;;;5.70;4.07;;;;;;;;;;4967149;28;20437;-74
2022/01/28 13:42:36;;;;;;;4.40;3.60;;;;;;;;;;4945760;28;20441;-74
2022/01/28 13:45:04;;;;;;;10.50;5.10;;;;;;;;;;4980503;28;21005;-73
2022/01/28 13:47:49;;;;;;;5.10;4.17;;;;;;;;;;4959039;28;20452;-73
2022/01/28 13:50:22;;;;;;;9.80;3.80;;;;;;;;;;4973171;28;20437;-75
2022/01/28 13:52:53;;;;;;;6.43;3.70;;;;;;;;;;4969328;28;20437;-75
2022/01/28 13:55:34;;;;;;;9.80;4.40;;;;;;;;;;4979127;28;20429;-76
2022/01/28 13:58:02;;;;;;;5.23;3.80;;;;;;;;;;4976316;28;20442;-76
2022/01/28 14:00:35;;;;;;;5.37;4.23;;;;;;;;;;4968630;28;20456;-75
2022/01/28 14:03:01;;;;;;;7.27;4.23;;;;;;;;;;4968425;28;21219;-74
2022/01/28 14:05:47;;;;;;;6.10;3.67;;;;;;;;;;4972960;28;20488;-74
2022/01/28 14:08:13;;;;;;;7.30;4.10;;;;;;;;;;4973635;28;20445;-74
2022/01/28 14:10:40;;;;;;;7.50;4.27;;;;;;;;;;4937480;28;20652;-75
2022/01/28 14:13:20;;;;;;;8.93;5.10;;;;;;;;;;4970398;28;20517;-73
2022/01/28 14:16:01;;;;;;;8.27;4.73;;;;;;;;;;4973212;28;20460;-73
2022/01/28 14:18:27;;;;;;;9.33;4.93;;;;;;;;;;4979290;28;20460;-72
2022/01/28 14:20:53;;;;;;;5.70;4.50;;;;;;;;;;4949374;28;20512;-74
2022/01/28 14:23:20;;;;;;;7.23;4.20;;;;;;;;;;4950322;28;20997;-74
2022/01/28 14:25:46;;;;;;;6.97;3.80;;;;;;;;;;4963971;28;22060;-74
2022/01/28 14:28:34;;;;;;;6.63;4.30;;;;;;;;;;4947530;28;20953;-74
2022/01/28 14:31:08;;;;;;;6.07;4.30;;;;;;;;;;4967555;28;20433;-73
2022/01/28 14:33:35;;;;;;;5.80;4.43;;;;;;;;;;4943606;28;20491;-73
2022/01/28 14:36:01;;;;;;;12.40;5.10;;;;;;;;;;4966286;28;20953;-72
2022/01/28 14:38:27;;;;;;;7.83;4.50;;;;;;;;;;4956788;28;20444;-74
2022/01/28 14:40:53;;;;;;;5.60;4.43;;;;;;;;;;4975394;28;20445;-73
2022/01/28 14:43:19;;;;;;;8.20;5.20;;;;;;;;;;4934791;28;21179;-75
2022/01/28 14:45:45;;;;;;;7.17;4.47;;;;;;;;;;4978107;28;20488;-73
2022/01/28 14:48:11;;;;;;;4.43;3.80;;;;;;;;;;4968599;28;20429;-73
2022/01/28 14:50:37;;;;;;;5.47;3.67;;;;;;;;;;4977064;28;21077;-73
2022/01/28 14:53:04;;;;;;;8.43;3.57;;;;;;;;;;4963304;28;20445;-74
2022/01/28 14:55:30;;;;;;;8.30;3.77;;;;;;;;;;4964457;28;20467;-73
2022/01/28 14:57:56;;;;;;;7.27;4.63;;;;;;;;;;4977328;28;20429;-73
2022/01/28 15:00:22;;;;;;;6.57;3.70;;;;;;;;;;4959575;28;20984;-73
2022/01/28 15:02:48;;;;;;;8.80;4.00;;;;;;;;;;4978642;28;20464;-74
2022/01/28 15:05:14;;;;;;;6.93;4.00;;;;;;;;;;4956211;28;20503;-73
2022/01/28 15:07:40;;;;;;;6.87;4.00;;;;;;;;;;4978932;28;20436;-73
2022/01/28 15:10:08;;;;;;;5.70;3.90;;;;;;;;;;4959472;28;20565;-73
2022/01/28 15:12:35;;;;;;;10.70;5.77;;;;;;;;;;4979368;28;21019;-73
2022/01/28 15:15:01;;;;;;;5.23;4.30;;;;;;;;;;4923682;28;21423;-73
2022/01/28 15:17:27;;;;;;;5.97;5.00;;;;;;;;;;4978174;28;20933;-73
2022/01/28 15:19:53;;;;;;;10.40;3.87;;;;;;;;;;4975171;28;20433;-73
2022/01/28 15:22:19;;;;;;;6.97;4.20;;;;;;;;;;4973604;28;20801;-74
2022/01/28 15:24:45;;;;;;;8.67;5.60;;;;;;;;;;4939273;28;20523;-73
2022/01/28 15:27:12;;;;;;;5.33;3.67;;;;;;;;;;4968665;28;20515;-72
2022/01/28 15:37:25;;;;;;;5.33;4.77;;;;;;;;;;4979458;28;20445;-74
2022/01/28 15:39:51;;;;;;;9.20;5.00;;;;;;;;;;4959246;28;20449;-74
2022/01/28 15:42:17;;;;;;;8.43;4.23;;;;;;;;;;4975540;28;20519;-74
2022/01/28 15:44:43;;;;;;;8.13;4.40;;;;;;;;;;4926217;28;20446;-73
2022/01/28 15:47:13;;;;;;;17.83;3.90;;;;;;;;;;4969435;28;20448;-73
2022/01/28 15:49:41;;;;;;;6.10;4.07;;;;;;;;;;4974595;28;20441;-73
2022/01/28 15:52:07;;;;;;;13.80;4.57;;;;;;;;;;4975308;28;20442;-73
2022/01/28 15:54:33;;;;;;;12.60;4.30;;;;;;;;;;4951052;28;20512;-73
2022/01/28 15:57:00;;;;;;;9.50;4.53;;;;;;;;;;4978253;28;20437;-73
2022/01/28 15:59:26;;;;;;;8.27;4.33;;;;;;;;;;4974845;28;20441;-73
2022/01/28 16:01:52;;;;;;;6.10;4.50;;;;;;;;;;4973527;28;20830;-73
2022/01/28 16:04:18;;;;;;;5.20;4.30;;;;;;;;;;4941114;28;20457;-73
2022/01/28 16:06:47;;;;;;;5.80;4.10;;;;;;;;;;4954471;28;20561;-73
2022/01/28 16:09:13;;;;;;;7.63;3.70;;;;;;;;;;4972523;28;20544;-73
2022/01/28 16:11:54;;;;;;;6.50;4.17;;;;;;;;;;4968620;28;20445;-74
2022/01/28 16:19:37;;;;;;;6.63;4.90;;;;;;;;;;4972384;28;20461;-72
2022/01/28 16:22:04;;;;;;;9.03;5.37;;;;;;;;;;4969987;28;20991;-73
2022/01/28 16:24:30;;;;;;;7.77;4.90;;;;;;;;;;4961653;28;20444;-73
2022/01/28 16:26:56;;;;;;;5.50;4.33;;;;;;;;;;4951295;28;20441;-73
2022/01/28 16:29:22;;;;;;;8.20;4.80;;;;;;;;;;4941560;28;21029;-73
2022/01/28 16:31:48;;;;;;;10.43;4.77;;;;;;;;;;4967798;28;20455;-73
2022/01/28 16:34:15;;;;;;;9.50;4.90;;;;;;;;;;4943868;28;20448;-73
2022/01/28 16:36:44;;;;;;;8.23;4.60;;;;;;;;;;4974516;28;20434;-74
2022/01/28 16:39:11;;;;;;;8.33;4.20;;;;;;;;;;4945449;28;20476;-73
2022/01/28 16:41:41;;;;;;;7.60;4.30;;;;;;;;;;4971929;28;21008;-73
2022/01/28 16:44:13;;;;;;;6.93;4.50;;;;;;;;;;4954729;28;20538;-73
2022/01/28 16:46:39;;;;;;;4.87;3.90;;;;;;;;;;4971850;28;20493;-73
2022/01/28 16:49:05;;;;;;;8.03;4.90;;;;;;;;;;4927951;28;20448;-74
2022/01/28 16:51:31;;;;;;;8.10;5.03;;;;;;;;;;4964886;28;20773;-74
2022/01/28 16:53:57;;;;;;;4.33;3.80;;;;;;;;;;4956057;28;20441;-73
2022/01/28 16:56:24;;;;;;;6.93;4.60;;;;;;;;;;4978224;28;20904;-74
2022/01/28 16:58:51;;;;;;;8.30;5.67;;;;;;;;;;4966316;28;20528;-74
2022/01/28 17:01:17;;;;;;;7.93;5.00;;;;;;;;;;4970172;28;20468;-75
2022/01/28 17:03:44;;;;;;;6.30;5.43;;;;;;;;;;4963915;28;21019;-76
2022/01/28 17:06:10;;;;;;;7.17;4.50;;;;;;;;;;4974054;28;20469;-76
2022/01/28 17:08:36;;;;;;;7.37;4.40;;;;;;;;;;4979203;28;20477;-76
2022/01/28 17:13:41;;;;;;;9.90;4.50;;;;;;;;;;4966995;28;20455;-76
2022/01/28 17:16:07;;;;;;;9.27;5.23;;;;;;;;;;4959123;28;20543;-74
2022/01/28 17:18:34;;;;;;;8.03;4.57;;;;;;;;;;4969981;28;20436;-74
2022/01/28 17:21:03;;;;;;;8.83;4.27;;;;;;;;;;4963013;28;20453;-73
2022/01/28 17:23:32;;;;;;;8.17;4.40;;;;;;;;;;4958658;28;21040;-74
2022/01/28 17:25:59;;;;;;;8.67;6.10;;;;;;;;;;4982951;28;20520;-73
2022/01/28 17:28:26;;;;;;;8.00;5.10;;;;;;;;;;4989004;28;20441;-74
2022/01/28 17:30:52;;;;;;;8.77;5.03;;;;;;;;;;4988869;28;20449;-75
2022/01/28 17:33:18;;;;;;;7.70;4.60;;;;;;;;;;4980436;28;20507;-75
2022/01/28 17:35:44;;;;;;;9.27;5.13;;;;;;;;;;4986505;28;20445;-74
2022/01/28 17:38:10;;;;;;;6.97;5.13;;;;;;;;;;4970238;28;20438;-75
2022/01/28 17:40:36;;;;;;;7.00;5.57;;;;;;;;;;4988013;28;20444;-75
2022/01/28 17:43:02;;;;;;;9.90;5.60;;;;;;;;;;4974896;28;20528;-74
2022/01/28 17:45:28;;;;;;;8.47;5.27;;;;;;;;;;5000575;28;20477;-75
2022/01/28 17:47:55;;;;;;;8.30;5.07;;;;;;;;;;4974050;28;20437;-74
2022/01/28 17:50:21;;;;;;;10.17;5.87;;;;;;;;;;4985459;28;20453;-75
2022/01/28 17:52:47;;;;;;;7.83;5.00;;;;;;;;;;4942597;28;20438;-73
2022/01/28 17:55:13;;;;;;;6.90;4.83;;;;;;;;;;4970333;28;20611;-74
2022/01/28 17:57:39;;;;;;;5.20;3.70;;;;;;;;;;4989472;28;20434;-74
2022/01/28 18:00:06;;;;;;;10.57;4.47;;;;;;;;;;4988809;28;20462;-74
2022/01/28 18:02:32;;;;;;;6.83;4.77;;;;;;;;;;4986405;28;20450;-73
2022/01/28 18:04:58;;;;;;;5.83;4.53;;;;;;;;;;4985128;28;20479;-74
2022/01/28 18:07:23;;;;;;;9.10;4.77;;;;;;;;;;4970717;28;20530;-74
2022/01/28 18:09:49;;;;;;;8.47;4.83;;;;;;;;;;4980824;28;20877;-73
2022/01/28 18:12:15;;;;;;;19.77;7.80;;;;;;;;;;4982186;28;20430;-75
2022/01/28 18:14:41;;;;;;;7.33;4.03;;;;;;;;;;4980077;28;20553;-74
2022/01/28 18:17:07;;;;;;;7.70;5.00;;;;;;;;;;4966591;28;20453;-73
2022/01/28 18:19:33;;;;;;;7.23;5.47;;;;;;;;;;4986343;28;20556;-74
2022/01/28 18:22:00;;;;;;;9.23;5.00;;;;;;;;;;4933824;28;20457;-74
2022/01/28 18:24:25;;;;;;;10.90;5.40;;;;;;;;;;4979677;28;20475;-75
2022/01/28 18:26:52;;;;;;;8.87;4.43;;;;;;;;;;4972776;28;20480;-75
2022/01/28 18:29:18;;;;;;;11.30;5.00;;;;;;;;;;4979490;28;20440;-75
2022/01/28 18:31:44;;;;;;;10.90;5.30;;;;;;;;;;4971937;28;21012;-75
2022/01/28 18:34:10;;;;;;;6.07;4.83;;;;;;;;;;4980904;28;20449;-75
2022/01/28 18:36:36;;;;;;;6.37;4.57;;;;;;;;;;4960563;28;20491;-75
2022/01/28 18:39:03;;;;;;;11.17;5.17;;;;;;;;;;4983902;28;20429;-74
2022/01/28 18:41:29;;;;;;;7.53;4.73;;;;;;;;;;4971472;28;20448;-75
2022/01/28 18:44:02;;;;;;;8.57;5.47;;;;;;;;;;4982715;28;20471;-75
2022/01/28 18:46:40;;;;;;;14.53;5.57;;;;;;;;;;4968905;28;20880;-74
2022/01/28 18:49:06;;;;;;;6.27;4.83;;;;;;;;;;4977559;28;20918;-74
2022/01/28 18:51:32;;;;;;;8.83;5.43;;;;;;;;;;4959894;28;20429;-74
2022/01/28 18:53:59;;;;;;;11.60;4.67;;;;;;;;;;4971085;28;20453;-74
2022/01/28 18:56:25;;;;;;;7.50;4.87;;;;;;;;;;4934728;28;20487;-74
2022/01/28 18:58:51;;;;;;;10.77;5.10;;;;;;;;;;4980858;28;20437;-76
2022/01/28 19:01:17;;;;;;;9.40;5.13;;;;;;;;;;4971716;28;21141;-74
2022/01/28 19:03:43;;;;;;;5.40;4.50;;;;;;;;;;4982649;28;20444;-74
2022/01/28 19:06:09;;;;;;;9.20;5.50;;;;;;;;;;4960719;28;20568;-75
2022/01/28 19:08:35;;;;;;;12.23;6.20;;;;;;;;;;4970981;28;20450;-75
2022/01/28 19:11:01;;;;;;;9.50;6.23;;;;;;;;;;4951698;28;20457;-75
2022/01/28 19:13:32;;;;;;;11.10;6.40;;;;;;;;;;4978421;28;20971;-76
2022/01/28 19:15:57;;;;;;;8.20;5.40;;;;;;;;;;4956265;28;20473;-75
2022/01/28 19:18:23;;;;;;;9.43;4.33;;;;;;;;;;4981043;28;20454;-74
2022/01/28 19:20:49;;;;;;;16.40;6.27;;;;;;;;;;4953218;28;20457;-74
2022/01/28 19:23:15;;;;;;;9.97;6.63;;;;;;;;;;4970565;28;20438;-74
2022/01/28 19:25:41;;;;;;;12.67;6.13;;;;;;;;;;4924350;28;20497;-74
2022/01/28 19:28:08;;;;;;;10.17;5.53;;;;;;;;;;4972160;28;20434;-74
2022/01/28 19:30:35;;;;;;;11.50;5.70;;;;;;;;;;4967487;28;20448;-74
2022/01/28 19:33:03;;;;;;;10.30;5.40;;;;;;;;;;4979101;28;20433;-73
2022/01/28 19:35:29;;;;;;;7.60;5.20;;;;;;;;;;4966056;28;21052;-74
2022/01/28 19:37:55;;;;;;;8.63;5.53;;;;;;;;;;4974093;28;20434;-75
2022/01/28 19:40:23;;;;;;;10.13;4.70;;;;;;;;;;4969818;28;20432;-74
2022/01/28 19:42:49;;;;;;;7.53;4.57;;;;;;;;;;4964022;28;20457;-74
2022/01/28 19:45:16;;;;;;;8.57;6.20;;;;;;;;;;4967299;28;20569;-75
2022/01/28 19:47:47;;;;;;;8.93;5.67;;;;;;;;;;4948816;28;20457;-74
2022/01/28 19:50:14;;;;;;;9.00;5.90;;;;;;;;;;4960821;28;20442;-76
2022/01/28 19:52:40;;;;;;;7.83;5.60;;;;;;;;;;4968655;28;20441;-77
2022/01/28 19:55:07;;;;;;;11.47;5.80;;;;;;;;;;4952941;28;20449;-74
2022/01/28 19:57:33;;;;;;;7.70;5.63;;;;;;;;;;4939647;28;21167;-74
2022/01/28 19:59:59;;;;;;;8.53;4.80;;;;;;;;;;4975335;28;20445;-73
2022/01/28 20:02:25;;;;;;;9.80;5.37;;;;;;;;;;4968580;28;20456;-74
2022/01/28 20:04:51;;;;;;;9.57;6.43;;;;;;;;;;4975869;28;20446;-75
2022/01/28 20:07:17;;;;;;;9.30;5.70;;;;;;;;;;4951157;28;20445;-75
2022/01/28 20:09:44;;;;;;;7.80;5.10;;;;;;;;;;4973845;28;20430;-75
2022/01/28 20:12:11;;;;;;;7.73;5.70;;;;;;;;;;4969723;28;20885;-75
2022/01/28 20:14:38;;;;;;;8.10;4.33;;;;;;;;;;4980210;28;20437;-75
2022/01/28 20:17:04;;;;;;;6.10;4.50;;;;;;;;;;4953117;28;20459;-75
2022/01/28 20:19:31;;;;;;;7.30;5.93;;;;;;;;;;4976698;28;20958;-75
2022/01/28 20:21:58;;;;;;;9.87;6.00;;;;;;;;;;4949834;28;20818;-74